Weather reports worldwide

Advertisment
Ferrara, Italy (16133): temperature & dewpoint: 25.09.2020 00:00:00 - 01.10.2020 00:00:00 (CEST)Ferrara, Italy (16133): wind speed: 25.09.2020 00:00:00 - 01.10.2020 00:00:00 (CEST)Ferrara, Italy (16133): wind direction: 25.09.2020 00:00:00 - 01.10.2020 00:00:00 (CEST)Ferrara, Italy (16133): reduced air pressure: 25.09.2020 00:00:00 - 01.10.2020 00:00:00 (CEST)Ferrara, Italy (16133): precipitation: 25.09.2020 00:00:00 - 01.10.2020 00:00:00 (CEST)
Date & Time tt [°C] td [°C] ff [km/h] ff [kn] dd ppp [hPa] rr [mm]
01.10.2020 00:00:00 - - - - - - -
30.09.2020 23:00:00 - - - - - - -
30.09.2020 22:00:00 - - - - - - -
30.09.2020 21:00:00 - - - - - - -
30.09.2020 20:00:00 20,8 10,6 3 1 ENE 1012,3 0,0
30.09.2020 19:00:00 21,3 10,5 2 1 ENE 1012,3 0,0
30.09.2020 18:00:00 - - - - - - -
30.09.2020 17:00:00 - - - - - - -
30.09.2020 16:00:00 - - - - - - -
30.09.2020 15:00:00 - - - - - - -
30.09.2020 14:00:00 21,4 9,6 6 3 WNW 1014,4 0,0
30.09.2020 13:00:00 - - - - - - -
30.09.2020 12:00:00 - - - - - - -
30.09.2020 11:00:00 - - - - - - -
30.09.2020 10:00:00 - - - - - - -
30.09.2020 09:00:00 - - - - - - -
30.09.2020 08:00:00 11,8 10,7 4 2 W 1016,3 0,0
30.09.2020 07:00:00 - - - - - - -
30.09.2020 06:00:00 12,8 11,4 3 2 E 1016,1 0,0
30.09.2020 05:00:00 - - - - - - -
30.09.2020 04:00:00 13,3 11,7 6 4 NNE 1016,5 0,0
30.09.2020 03:00:00 13,6 11,1 6 4 NNE 1016,5 0,0
30.09.2020 02:00:00 14,0 11,2 - - - 1016,5 0,0
30.09.2020 01:00:00 15,3 11,1 4 2 NE 1016,5 0,0
30.09.2020 00:00:00 15,6 11,4 3 2 E 1016,9 0,0
29.09.2020 23:00:00 - - - - - - -
29.09.2020 22:00:00 - - - - - - -
29.09.2020 21:00:00 17,1 11,1 6 4 E 1016,8 0,0
29.09.2020 20:00:00 19,6 8,3 2 1 E 1016,5 -
29.09.2020 19:00:00 - - - - - - -
29.09.2020 18:00:00 21,5 6,6 2 1 WNW 1015,9 0,0
29.09.2020 17:00:00 - - - - - - -
29.09.2020 16:00:00 - - - - - - -
29.09.2020 15:00:00 21,0 6,9 6 3 NW 1016,4 0,0
29.09.2020 14:00:00 20,3 7,6 9 5 W 1017,0 0,0
29.09.2020 13:00:00 19,6 8,0 5 3 NW 1017,4 0,0
29.09.2020 12:00:00 - - - - - - -
29.09.2020 11:00:00 17,2 10,3 2 1 S 1017,4 0,0
29.09.2020 10:00:00 15,2 10,4 2 1 WSW 1017,2 0,0
29.09.2020 09:00:00 12,5 10,6 3 1 WNW 1016,4 0,0
29.09.2020 08:00:00 10,6 9,5 4 2 WNW 1016,0 0,0
29.09.2020 07:00:00 10,4 9,5 3 2 W 1015,3 0,0
29.09.2020 06:00:00 10,8 9,6 3 2 W 1014,8 0,0
29.09.2020 05:00:00 11,2 9,8 1 1 WSW 1014,5 0,0
29.09.2020 04:00:00 12,3 10,0 7 4 NNE 1014,3 0,0
29.09.2020 03:00:00 12,4 10,1 2 1 W 1014,0 0,0
29.09.2020 02:00:00 12,7 10,2 6 3 ENE 1013,4 0,0
29.09.2020 01:00:00 - - - - - - -
29.09.2020 00:00:00 14,2 11,0 3 1 N 1013,3 0,0
28.09.2020 23:00:00 14,5 10,5 3 2 E 1012,6 0,0
28.09.2020 22:00:00 14,7 10,5 6 3 E 1012,0 0,0
28.09.2020 21:00:00 - - - - - - -
28.09.2020 20:00:00 16,1 9,5 5 3 E 1010,7 0,0
28.09.2020 19:00:00 - - - - - - -
28.09.2020 18:00:00 - - - - - - -
28.09.2020 17:00:00 18,8 6,3 2 1 WNW 1008,8 0,0
28.09.2020 16:00:00 - - - - - - -
28.09.2020 15:00:00 - - - - - - -
28.09.2020 14:00:00 16,6 8,8 8 4 SW 1008,5 0,0
28.09.2020 13:00:00 - - - - - - -
28.09.2020 12:00:00 - - - - - - -
28.09.2020 11:00:00 13,3 8,4 8 4 W 1007,0 0,0
28.09.2020 10:00:00 12,2 7,7 11 6 W 1006,3 0,0
28.09.2020 09:00:00 11,3 8,0 12 7 W 1005,6 0,0
28.09.2020 08:00:00 10,6 8,0 10 5 W 1004,7 0,0
28.09.2020 07:00:00 - - - - - - -
28.09.2020 06:00:00 - - - - - - -
28.09.2020 05:00:00 - - - - - - -
28.09.2020 04:00:00 11,7 9,4 9 5 WNW 1004,1 0,0
28.09.2020 03:00:00 - - - - - - -
28.09.2020 02:00:00 12,1 10,0 8 5 WNW 1004,8 0,4
28.09.2020 01:00:00 12,5 9,7 10 6 WNW 1004,6 0,2
28.09.2020 00:00:00 12,7 10,1 11 6 NW 1004,2 0,2
27.09.2020 23:00:00 12,8 8,9 10 5 NNW 1004,4 0,2
27.09.2020 22:00:00 - - - - - - -
27.09.2020 21:00:00 13,3 9,5 7 4 N 1004,9 0,0
27.09.2020 20:00:00 13,9 8,5 7 4 NE 1004,8 0,0
27.09.2020 19:00:00 - - - - - - -
27.09.2020 18:00:00 - - - - - - -
27.09.2020 17:00:00 - - - - - - -
27.09.2020 16:00:00 14,3 9,1 16 9 ENE 1005,1 0,2
27.09.2020 15:00:00 - - - - - - -
27.09.2020 14:00:00 15,9 7,1 10 5 NE 1005,5 0,0
27.09.2020 13:00:00 15,3 7,1 6 3 E 1005,6 0,0
27.09.2020 12:00:00 13,3 5,5 6 3 S 1006,4 0,0
27.09.2020 11:00:00 - - - - - - -
27.09.2020 10:00:00 - - - - - - -
27.09.2020 09:00:00 11,3 5,2 6 3 SSW 1004,5 0,0
27.09.2020 08:00:00 11,2 4,6 4 2 ENE 1003,7 0,0
27.09.2020 07:00:00 - - - - - - -
27.09.2020 06:00:00 9,6 4,8 5 3 ENE 1002,9 0,0
27.09.2020 05:00:00 - - - - - - -
27.09.2020 04:00:00 11,4 4,4 5 3 WSW 1002,2 0,0
27.09.2020 03:00:00 - - - - - - -
27.09.2020 02:00:00 12,2 1,8 3 2 WSW 1002,1 0,0
27.09.2020 01:00:00 13,1 1,1 8 4 W 1001,0 0,0
27.09.2020 00:00:00 13,2 1,2 7 4 WSW 1000,4 0,0
26.09.2020 23:00:00 - - - - - - -
26.09.2020 22:00:00 15,0 -0,7 7 4 WSW 999,9 0,0
26.09.2020 21:00:00 16,5 -1,6 8 4 W 999,1 0,0
26.09.2020 20:00:00 - - - - - - -
26.09.2020 19:00:00 18,5 -1,9 11 6 W 998,6 0,0
26.09.2020 18:00:00 - - - - - - -
26.09.2020 17:00:00 21,1 -2,7 13 7 W 998,0 0,0
26.09.2020 16:00:00 20,9 -1,6 10 6 W 997,9 0,0
26.09.2020 15:00:00 - - - - - - -
26.09.2020 14:00:00 19,4 2,3 18 10 W 997,8 0,0
26.09.2020 13:00:00 18,3 2,6 23 12 WNW 997,6 0,0
26.09.2020 12:00:00 17,1 4,1 18 10 W 997,6 0,0
26.09.2020 11:00:00 - - - - - - -
26.09.2020 10:00:00 - - - - - - -
26.09.2020 09:00:00 11,9 7,4 13 7 SSW 996,4 0,0
26.09.2020 08:00:00 11,2 8,1 10 5 SW 996,4 0,0
26.09.2020 07:00:00 11,6 8,3 6 4 SSW 996,0 0,0
26.09.2020 06:00:00 11,4 8,4 8 5 SSW 995,9 0,0
26.09.2020 05:00:00 11,3 8,2 6 4 SSE 995,7 0,0
26.09.2020 04:00:00 11,6 8,1 6 3 E 995,1 0,0
26.09.2020 03:00:00 13,7 4,8 11 6 WNW 993,4 0,2
26.09.2020 02:00:00 12,3 7,2 21 11 W 993,3 0,4
26.09.2020 01:00:00 14,8 3,9 26 14 WNW 992,2 0,0
26.09.2020 00:00:00 13,0 6,6 22 12 W 992,3 0,0
25.09.2020 23:00:00 - - - - - - -
25.09.2020 22:00:00 - - - - - - -
25.09.2020 21:00:00 13,5 7,3 11 6 WSW 992,6 0,0
25.09.2020 20:00:00 14,1 6,7 15 8 W 992,7 0,0
25.09.2020 19:00:00 - - - - - - -
25.09.2020 18:00:00 - - - - - - -
25.09.2020 17:00:00 - - - - - - -
25.09.2020 16:00:00 - - - - - - -
25.09.2020 15:00:00 - - - - - - -
25.09.2020 14:00:00 25,7 7,3 24 13 SW 993,4 0,0
25.09.2020 13:00:00 - - - - - - -
25.09.2020 12:00:00 - - - - - - -
25.09.2020 11:00:00 23,8 15,0 14 7 SW 996,9 0,0
25.09.2020 10:00:00 21,3 16,9 3 2 E 997,3 0,0
25.09.2020 09:00:00 - - - - - - -
25.09.2020 08:00:00 17,7 16,4 5 3 ENE 998,0 0,0
25.09.2020 07:00:00 17,8 16,1 10 5 S 998,5 0,0
25.09.2020 06:00:00 - - - - - - -
25.09.2020 05:00:00 18,0 17,2 11 6 SSE 999,6 0,0
25.09.2020 04:00:00 - - - - - - -
25.09.2020 03:00:00 - - - - - - -
25.09.2020 02:00:00 18,6 17,4 9 5 ESE 1004,0 0,6
25.09.2020 01:00:00 18,9 17,2 15 8 E 1004,8 3,6
25.09.2020 00:00:00 20,2 16,6 7 4 SSW 1006,0 0,6

tt = temperature
td = dewpoint
ff = wind speed
dd = wind direction
ppp = reduced air pressure
rr = precipitation

Next stations